Aviation Digital Data Service (ADDS)

Output produced by METARs form (1825 UTC 16 August 2018)
found at http://www.aviationweather.gov/adds/metars/
 
KWJF 161727Z 1618/1718 00000KT P6SM SKC 
     FM161900 25012KT P6SM FEW080 
     FM162100 24014G24KT P6SM VCTS SCT080CB BKN150 
     FM170200 24012KT P6SM SKC 
     FM170700 25008KT P6SM SKC 
     FM171400 VRB03KT P6SM SKC
       
KWMC 161720Z 1618/1718 VRB05KT P6SM SCT120 
     FM162000 25008KT P6SM SCT120 
     FM170100 24010KT P6SM VCTS BKN120CB 
     FM170400 20006KT P6SM SKC
       
TAF AMD KWRB 161430Z 1614/1719 22003KT 4800 BR BKN015 QNH3015INS 
     BECMG 1615/1616 20009KT 9999 NSW SCT035 QNH3010INS 
     TEMPO 1620/1701 VRB15G25KT 6000 -TSRA BKN030CB 
     BECMG 1702/1703 21003KT 4800 BR SCT020 BKN150 QNH3012INS 
     BECMG 1708/1709 22003KT 3200 BR BKN005 BKN120 QNH3013INS 
     BECMG 1714/1715 23009KT 9999 NSW SCT035 BKN100 QNH3014INS TX32/1620Z TN23/1713Z
       
TAF KWRI 161800Z 1618/1724 27006KT 9999 FEW050 SCT200 QNH3000INS 
     BECMG 1714/1715 19010G15KT 9999 SCT040 QNH3000INS 
     BECMG 1723/1724 18009KT 9000 -SHRA BKN035 QNH3000INS TX31/1618Z TN22/1709Z
       
KWRL 161720Z 1618/1718 VRB03KT P6SM SKC 
     FM161900 02006KT P6SM SKC 
     FM170400 16006KT P6SM SCT200 
     FM171500 VRB04KT P6SM SCT120 SCT200